Time;durP1;ratioP1;P1;durP2;ratioP2;P2;SDS_P1;SDS_P2;PMS_P1;PMS_P2;Temp;Humidity;BMP_temperature;BMP_pressure;BME280_temperature;BME280_humidity;BME280_pressure;Samples;Min_cycle;Max_cycle;Signal;HPM_P1;HPM_P2
2021/03/01 00:00:28;;;;;;;5.68;1.33;;;21.30;45.30;;;;;;5060127;28;20048;-81
2021/03/01 00:02:54;;;;;;;2.03;1.67;;;21.30;45.30;;;;;;5053700;28;20044;-79
2021/03/01 00:05:20;;;;;;;2.75;1.50;;;21.30;45.30;;;;;;5055008;28;20171;-80
2021/03/01 00:07:46;;;;;;;2.22;1.85;;;21.30;45.30;;;;;;5058204;28;20115;-79
2021/03/01 00:10:13;;;;;;;2.03;1.45;;;21.30;45.30;;;;;;5057575;28;20420;-81
2021/03/01 00:12:39;;;;;;;3.45;2.03;;;21.20;45.30;;;;;;5058868;28;20029;-81
2021/03/01 00:15:08;;;;;;;1.80;1.40;;;21.30;45.30;;;;;;5058366;28;20156;-79
2021/03/01 00:17:34;;;;;;;2.70;1.80;;;21.20;45.30;;;;;;5056855;28;20040;-80
2021/03/01 00:20:00;;;;;;;2.40;1.80;;;21.20;45.30;;;;;;5056327;28;20115;-81
2021/03/01 00:22:25;;;;;;;2.08;1.00;;;21.30;45.30;;;;;;5058079;28;20070;-80
2021/03/01 00:24:51;;;;;;;2.70;1.75;;;21.20;45.30;;;;;;5042278;28;20028;-79
2021/03/01 00:27:16;;;;;;;3.17;1.38;;;21.20;45.30;;;;;;5056692;28;20060;-80
2021/03/01 00:29:42;;;;;;;2.05;1.38;;;21.20;45.30;;;;;;5062515;28;20024;-79
2021/03/01 00:32:08;;;;;;;2.10;1.30;;;21.20;45.30;;;;;;5056948;28;20045;-79
2021/03/01 00:34:33;;;;;;;2.28;1.45;;;21.20;45.30;;;;;;5041755;28;20029;-79
2021/03/01 00:36:59;;;;;;;3.42;1.10;;;21.20;45.20;;;;;;5056683;28;20108;-79
2021/03/01 00:39:25;;;;;;;2.17;1.10;;;21.20;45.20;;;;;;5055216;28;20484;-79
2021/03/01 00:41:50;;;;;;;1.40;1.15;;;21.20;45.30;;;;;;5038034;28;20049;-79
2021/03/01 00:44:17;;;;;;;3.10;1.33;;;21.20;45.20;;;;;;5060306;28;20037;-80
2021/03/01 00:46:43;;;;;;;1.90;1.45;;;21.20;45.30;;;;;;5057515;28;20548;-79
2021/03/01 00:49:09;;;;;;;1.70;1.00;;;21.20;45.30;;;;;;5055223;28;20191;-82
2021/03/01 00:51:34;;;;;;;1.85;1.52;;;21.20;45.30;;;;;;5035982;28;20047;-80
2021/03/01 00:54:00;;;;;;;2.45;0.80;;;21.20;45.30;;;;;;5039793;28;20017;-80
2021/03/01 00:56:26;;;;;;;2.05;1.45;;;21.20;45.30;;;;;;5059346;28;20055;-80
2021/03/01 00:58:51;;;;;;;1.65;1.00;;;21.20;45.40;;;;;;5056634;28;20140;-79
2021/03/01 01:01:17;;;;;;;2.10;0.75;;;21.20;45.30;;;;;;5061627;28;20029;-79
2021/03/01 01:03:42;;;;;;;1.70;1.35;;;21.20;45.30;;;;;;5055758;28;20021;-79
2021/03/01 01:06:08;;;;;;;1.52;1.25;;;21.10;45.20;;;;;;5042133;28;20025;-80
2021/03/01 01:08:34;;;;;;;1.92;1.52;;;21.10;45.20;;;;;;5058591;28;20477;-78
2021/03/01 01:10:59;;;;;;;2.58;1.42;;;21.10;45.70;;;;;;5058262;28;20406;-80
2021/03/01 01:13:25;;;;;;;1.58;1.30;;;21.10;45.30;;;;;;5060274;28;20025;-79
2021/03/01 01:15:51;;;;;;;2.05;1.33;;;21.10;45.20;;;;;;5059021;28;20048;-78
2021/03/01 01:18:16;;;;;;;2.53;1.38;;;21.10;45.20;;;;;;5038560;28;20024;-79
2021/03/01 01:20:42;;;;;;;1.70;1.17;;;21.10;45.30;;;;;;5052367;28;20021;-81
2021/03/01 01:23:08;;;;;;;2.05;1.17;;;21.10;45.20;;;;;;5059309;28;20040;-79
2021/03/01 01:25:33;;;;;;;1.88;1.33;;;21.10;45.20;;;;;;5054892;28;20112;-79
2021/03/01 01:27:59;;;;;;;2.30;1.30;;;21.10;45.10;;;;;;5047609;28;20444;-79
2021/03/01 01:30:26;;;;;;;2.28;1.30;;;21.10;45.20;;;;;;5058444;28;20037;-80
2021/03/01 01:32:51;;;;;;;1.67;1.25;;;21.10;45.20;;;;;;5049891;28;20029;-79
2021/03/01 01:35:18;;;;;;;2.05;1.33;;;21.10;45.10;;;;;;5049750;28;20096;-79
2021/03/01 01:37:44;;;;;;;2.13;1.17;;;21.10;45.10;;;;;;5056552;28;20024;-80
2021/03/01 01:40:13;;;;;;;1.77;0.88;;;21.10;45.10;;;;;;5057080;28;20095;-79
2021/03/01 01:42:39;;;;;;;2.25;1.10;;;21.10;45.20;;;;;;5047541;28;20139;-80
2021/03/01 01:45:07;;;;;;;1.83;1.10;;;21.10;45.20;;;;;;5059904;28;20127;-79
2021/03/01 01:47:33;;;;;;;2.42;1.13;;;21.10;45.10;;;;;;5051352;28;20021;-79
2021/03/01 01:49:59;;;;;;;1.35;1.05;;;21.10;45.10;;;;;;5065041;28;20026;-79
2021/03/01 01:52:24;;;;;;;2.25;1.33;;;21.10;45.00;;;;;;5057851;28;20037;-79
2021/03/01 01:54:50;;;;;;;3.25;1.25;;;21.10;45.00;;;;;;5063393;28;20085;-81
2021/03/01 01:57:16;;;;;;;2.10;1.10;;;21.10;45.00;;;;;;5054980;28;20116;-79
2021/03/01 01:59:43;;;;;;;1.63;1.40;;;21.00;45.00;;;;;;5061063;28;20545;-80
2021/03/01 02:02:09;;;;;;;1.67;1.05;;;21.00;45.00;;;;;;5060246;28;20048;-80
2021/03/01 02:04:42;;;;;;;2.85;1.13;;;21.10;45.10;;;;;;5059626;28;21537;-79
2021/03/01 02:07:25;;;;;;;1.35;1.08;;;21.10;45.10;;;;;;5064323;28;20037;-79
2021/03/01 02:10:17;;;;;;;1.50;0.98;;;21.00;45.00;;;;;;5039991;28;20088;-79
2021/03/01 02:13:19;;;;;;;2.00;1.15;;;21.00;45.00;;;;;;5052077;28;20033;-80
2021/03/01 02:15:48;;;;;;;2.15;1.38;;;21.00;45.10;;;;;;5048672;28;20033;-77
2021/03/01 02:18:13;;;;;;;2.00;1.52;;;21.00;45.00;;;;;;5029864;28;20037;-77
2021/03/01 02:20:49;;;;;;;1.80;1.00;;;21.00;45.00;;;;;;5064842;28;20013;-77
2021/03/01 02:23:17;;;;;;;1.40;0.93;;;21.00;45.00;;;;;;5053435;28;20032;-78
2021/03/01 02:25:57;;;;;;;2.22;1.02;;;21.00;45.00;;;;;;5054972;28;20028;-78
2021/03/01 02:28:28;;;;;;;3.05;1.10;;;21.00;45.10;;;;;;5057772;28;20083;-78
2021/03/01 02:30:57;;;;;;;1.60;1.00;;;21.00;45.00;;;;;;5053501;28;20040;-78
2021/03/01 02:33:27;;;;;;;1.70;1.05;;;21.00;45.00;;;;;;5051367;28;20488;-78
2021/03/01 02:35:57;;;;;;;2.72;1.20;;;21.00;45.00;;;;;;5054027;28;20045;-78
2021/03/01 02:38:27;;;;;;;2.20;1.20;;;21.00;45.00;;;;;;5046451;28;20567;-79
2021/03/01 02:40:54;;;;;;;2.45;1.45;;;21.00;45.00;;;;;;5057765;28;20548;-78
2021/03/01 02:43:20;;;;;;;2.00;1.08;;;21.00;45.00;;;;;;5055935;28;20029;-80
2021/03/01 02:45:47;;;;;;;1.27;1.17;;;21.00;45.00;;;;;;5052324;28;20025;-78
2021/03/01 02:48:14;;;;;;;1.88;1.05;;;21.00;44.90;;;;;;5054241;28;20018;-78
2021/03/01 02:50:42;;;;;;;2.45;1.17;;;21.00;45.00;;;;;;5062336;28;20101;-80
2021/03/01 02:53:08;;;;;;;1.48;1.38;;;21.00;45.00;;;;;;5064165;28;20044;-80
2021/03/01 02:55:35;;;;;;;3.40;1.33;;;21.00;45.00;;;;;;5055821;28;20025;-79
2021/03/01 02:58:02;;;;;;;1.95;0.75;;;20.90;45.00;;;;;;5054231;28;20043;-80
2021/03/01 03:00:28;;;;;;;1.60;1.15;;;21.00;45.10;;;;;;5055192;28;20513;-79
2021/03/01 03:02:55;;;;;;;3.25;1.45;;;21.00;45.00;;;;;;5056250;28;20066;-79
2021/03/01 03:05:22;;;;;;;1.50;1.23;;;21.00;45.00;;;;;;5041306;28;20029;-79
2021/03/01 03:07:49;;;;;;;2.25;0.98;;;21.00;45.00;;;;;;5054164;28;20027;-79
2021/03/01 03:10:16;;;;;;;1.27;0.98;;;20.90;45.00;;;;;;5060944;28;20063;-79
2021/03/01 03:12:43;;;;;;;1.30;1.20;;;21.00;45.00;;;;;;5055362;28;20032;-79
2021/03/01 03:15:14;;;;;;;2.33;1.60;;;20.90;45.00;;;;;;5036491;28;20025;-79
2021/03/01 03:17:40;;;;;;;2.13;1.60;;;20.90;45.00;;;;;;5060807;28;20024;-81
2021/03/01 03:20:08;;;;;;;2.03;1.42;;;20.90;45.00;;;;;;5043548;28;20186;-79
2021/03/01 03:22:34;;;;;;;3.33;1.63;;;20.90;45.00;;;;;;5039190;28;20123;-79
2021/03/01 03:25:01;;;;;;;3.20;1.58;;;20.90;45.00;;;;;;5064259;28;20526;-80
2021/03/01 03:27:26;;;;;;;3.40;1.60;;;20.90;45.00;;;;;;5063176;28;20113;-80
2021/03/01 03:29:52;;;;;;;1.98;1.17;;;20.90;45.00;;;;;;5061782;28;20083;-80
2021/03/01 03:32:17;;;;;;;2.05;1.58;;;20.90;45.00;;;;;;5055122;28;20039;-79
2021/03/01 03:34:43;;;;;;;2.72;1.67;;;20.90;45.00;;;;;;5055219;28;20033;-80
2021/03/01 03:37:17;;;;;;;2.70;2.08;;;20.90;45.00;;;;;;5037285;28;20481;-80
2021/03/01 03:39:46;;;;;;;1.95;1.63;;;20.90;45.00;;;;;;5066564;28;20032;-79
2021/03/01 03:42:22;;;;;;;2.38;1.75;;;20.80;45.00;;;;;;5061339;28;20043;-79
2021/03/01 03:44:51;;;;;;;2.10;1.67;;;20.90;45.00;;;;;;5053784;28;20033;-80
2021/03/01 03:47:18;;;;;;;1.90;1.70;;;20.90;45.00;;;;;;5056652;28;20029;-80
2021/03/01 03:49:45;;;;;;;2.80;1.73;;;20.90;45.00;;;;;;5056918;28;20104;-80
2021/03/01 03:52:14;;;;;;;2.72;2.25;;;20.90;45.00;;;;;;5056593;28;20074;-80
2021/03/01 03:54:43;;;;;;;3.42;1.55;;;20.90;45.00;;;;;;5040032;28;20124;-80
2021/03/01 03:57:14;;;;;;;3.28;1.92;;;20.90;45.00;;;;;;5054122;28;20094;-80
2021/03/01 03:59:41;;;;;;;2.33;1.98;;;20.90;45.00;;;;;;5059242;28;20036;-80
2021/03/01 04:02:10;;;;;;;3.65;1.98;;;20.90;45.00;;;;;;5066386;28;20049;-80
2021/03/01 04:04:37;;;;;;;2.22;1.85;;;20.80;44.90;;;;;;5054984;28;20033;-80
2021/03/01 04:07:05;;;;;;;2.67;2.17;;;20.80;45.00;;;;;;5057229;28;20034;-80
2021/03/01 04:09:33;;;;;;;3.63;2.25;;;20.90;45.00;;;;;;5044213;28;20083;-80
2021/03/01 04:12:01;;;;;;;2.35;1.58;;;20.90;45.00;;;;;;5059798;28;20025;-80
2021/03/01 04:14:29;;;;;;;2.75;2.10;;;20.90;45.00;;;;;;5048345;28;20033;-80
2021/03/01 04:16:57;;;;;;;3.28;2.70;;;20.80;45.00;;;;;;5055885;28;20058;-81
2021/03/01 04:19:27;;;;;;;3.10;2.15;;;20.90;45.00;;;;;;5055899;28;20042;-80
2021/03/01 04:21:59;;;;;;;2.90;2.35;;;20.80;45.00;;;;;;5061356;28;20295;-80
2021/03/01 04:24:27;;;;;;;3.50;2.78;;;20.80;45.00;;;;;;5049062;28;20021;-80
2021/03/01 04:26:53;;;;;;;3.03;2.63;;;20.80;45.00;;;;;;5064756;28;20057;-80
2021/03/01 04:29:21;;;;;;;3.33;2.30;;;20.80;45.00;;;;;;5057369;28;20043;-80
2021/03/01 04:31:49;;;;;;;3.55;2.60;;;20.80;45.00;;;;;;5055034;28;20036;-80
2021/03/01 04:34:17;;;;;;;3.03;2.75;;;20.80;45.00;;;;;;5061590;28;20037;-80
2021/03/01 04:36:43;;;;;;;4.40;2.83;;;20.80;45.00;;;;;;5058502;28;20091;-80
2021/03/01 04:39:09;;;;;;;3.95;2.78;;;20.80;45.00;;;;;;5060156;28;20065;-80
2021/03/01 04:41:35;;;;;;;4.10;2.97;;;20.80;45.00;;;;;;5064966;28;20028;-80
2021/03/01 04:44:05;;;;;;;3.33;2.78;;;20.80;45.10;;;;;;5058659;28;20031;-80
2021/03/01 04:46:32;;;;;;;4.10;3.20;;;20.80;45.00;;;;;;5059519;28;20028;-79
2021/03/01 04:49:01;;;;;;;4.05;3.05;;;20.80;45.10;;;;;;5056166;28;20087;-79
2021/03/01 04:51:28;;;;;;;4.25;3.38;;;20.80;45.10;;;;;;5059324;28;20937;-79
2021/03/01 04:53:55;;;;;;;4.90;3.38;;;20.70;45.00;;;;;;5045707;28;20767;-79
2021/03/01 04:56:22;;;;;;;3.60;3.25;;;20.80;45.00;;;;;;5059239;28;20040;-79
2021/03/01 04:58:48;;;;;;;5.22;3.53;;;20.70;45.00;;;;;;5059694;28;20071;-80
2021/03/01 05:01:15;;;;;;;5.30;3.65;;;20.80;45.00;;;;;;5062134;28;20040;-80
2021/03/01 05:03:41;;;;;;;3.05;2.72;;;20.80;45.00;;;;;;5045416;28;20044;-79
2021/03/01 05:06:07;;;;;;;4.15;3.75;;;20.70;45.00;;;;;;5062964;28;20025;-79
2021/03/01 05:08:35;;;;;;;3.90;3.55;;;20.70;45.00;;;;;;5060906;28;20632;-79
2021/03/01 05:11:05;;;;;;;5.10;3.38;;;20.80;45.00;;;;;;5066993;28;20035;-80
2021/03/01 05:13:30;;;;;;;4.75;3.47;;;20.80;45.00;;;;;;5053566;28;20028;-80
2021/03/01 05:15:56;;;;;;;6.32;4.65;;;20.70;45.00;;;;;;5039669;28;20427;-79
2021/03/01 05:18:21;;;;;;;4.13;3.53;;;20.80;45.10;;;;;;5050063;28;20089;-79
2021/03/01 05:20:47;;;;;;;5.18;4.32;;;20.70;45.00;;;;;;5055758;28;20032;-78
2021/03/01 05:23:13;;;;;;;5.15;3.95;;;20.70;44.90;;;;;;5055092;28;20047;-79
2021/03/01 05:25:38;;;;;;;5.10;4.38;;;20.70;44.90;;;;;;5044666;28;20021;-80
2021/03/01 05:28:04;;;;;;;5.28;4.35;;;20.70;45.00;;;;;;5059489;28;20103;-80
2021/03/01 05:30:29;;;;;;;5.72;4.13;;;20.70;45.00;;;;;;5057163;28;20051;-79
2021/03/01 05:32:55;;;;;;;6.45;4.43;;;20.70;45.00;;;;;;5041383;28;20145;-79
2021/03/01 05:35:21;;;;;;;5.55;4.28;;;20.70;44.90;;;;;;5046470;28;20451;-79
2021/03/01 05:38:05;;;;;;;7.53;5.03;;;20.70;45.00;;;;;;5062559;28;20100;-79
2021/03/01 05:40:49;;;;;;;5.35;4.45;;;20.70;45.00;;;;;;5061598;28;20090;-80
2021/03/01 05:43:33;;;;;;;6.20;4.50;;;20.70;45.00;;;;;;5051423;28;20081;-79
2021/03/01 05:46:00;;;;;;;5.65;4.32;;;20.70;45.00;;;;;;5055019;28;20036;-79
2021/03/01 05:48:28;;;;;;;7.70;5.32;;;20.70;45.00;;;;;;5058735;28;20032;-80
2021/03/01 05:50:57;;;;;;;6.72;4.47;;;20.70;45.10;;;;;;5051138;28;20108;-80
2021/03/01 05:53:29;;;;;;;7.55;5.18;;;20.70;45.20;;;;;;5053961;28;21434;-80
2021/03/01 05:55:57;;;;;;;5.03;3.85;;;20.60;45.10;;;;;;5054749;28;20040;-79
2021/03/01 05:58:23;;;;;;;8.15;5.38;;;20.60;45.20;;;;;;5044338;28;20033;-80
2021/03/01 06:00:49;;;;;;;7.65;5.30;;;20.60;45.10;;;;;;5054630;28;20089;-80
2021/03/01 06:03:15;;;;;;;7.82;5.22;;;20.60;45.20;;;;;;5051589;28;20121;-79
2021/03/01 06:05:42;;;;;;;7.45;5.20;;;20.70;45.20;;;;;;5053778;28;20063;-79
2021/03/01 06:08:10;;;;;;;8.25;4.78;;;20.80;45.30;;;;;;5055249;28;20048;-80
2021/03/01 06:10:36;;;;;;;8.57;6.00;;;20.90;45.50;;;;;;5056282;28;20539;-79
2021/03/01 06:13:02;;;;;;;8.68;6.25;;;21.00;45.50;;;;;;5058033;28;20056;-80
2021/03/01 06:15:29;;;;;;;6.10;5.03;;;21.10;45.60;;;;;;5056241;28;20032;-81
2021/03/01 06:18:11;;;;;;;7.70;4.97;;;21.00;45.60;;;;;;5050374;28;20041;-82
2021/03/01 06:20:37;;;;;;;8.73;5.28;;;21.00;45.70;;;;;;5052753;28;20032;-81
2021/03/01 06:23:04;;;;;;;6.97;4.80;;;21.10;45.70;;;;;;5037797;28;20260;-81
2021/03/01 06:25:30;;;;;;;5.63;4.63;;;21.00;45.70;;;;;;5051686;28;20039;-81
2021/03/01 06:28:00;;;;;;;7.40;5.65;;;21.10;45.60;;;;;;5047709;28;20025;-81
2021/03/01 06:30:33;;;;;;;5.85;3.85;;;21.10;45.60;;;;;;5063500;28;20071;-81
2021/03/01 06:33:08;;;;;;;5.63;4.55;;;21.20;45.40;;;;;;5056301;28;20194;-80
2021/03/01 06:35:42;;;;;;;5.35;4.20;;;21.30;45.30;;;;;;5048905;28;20032;-81
2021/03/01 06:38:16;;;;;;;5.20;4.55;;;21.30;45.10;;;;;;5051106;28;20068;-81
2021/03/01 06:40:43;;;;;;;6.38;4.22;;;21.50;45.20;;;;;;5049414;28;20033;-80
2021/03/01 06:43:10;;;;;;;5.15;4.00;;;21.60;42.00;;;;;;5061366;28;20029;-80
2021/03/01 06:45:36;;;;;;;5.15;3.80;;;22.20;44.30;;;;;;5051294;28;20116;-80
2021/03/01 06:48:01;;;;;;;5.05;3.65;;;22.30;44.60;;;;;;5058581;28;20099;-81
2021/03/01 06:50:44;;;;;;;5.55;3.63;;;22.60;42.10;;;;;;5053205;28;20036;-82
2021/03/01 06:53:28;;;;;;;4.95;3.65;;;22.20;39.20;;;;;;5059472;28;20111;-83
2021/03/01 06:56:05;;;;;;;5.47;3.72;;;22.10;39.10;;;;;;5047275;28;20033;-80
2021/03/01 06:58:41;;;;;;;5.50;4.15;;;22.00;39.40;;;;;;5058137;28;20025;-81
2021/03/01 07:01:08;;;;;;;5.15;4.20;;;22.00;39.10;;;;;;5056632;28;20060;-81
2021/03/01 07:03:35;;;;;;;4.65;4.13;;;21.90;38.90;;;;;;5038866;28;20020;-81
2021/03/01 07:06:03;;;;;;;4.97;3.47;;;21.80;38.50;;;;;;5042603;28;20103;-82
2021/03/01 07:08:48;;;;;;;6.00;4.07;;;21.70;38.80;;;;;;5036382;28;20062;-81
2021/03/01 07:11:34;;;;;;;5.78;3.40;;;21.70;38.80;;;;;;5054431;28;20060;-81
2021/03/01 07:14:06;;;;;;;6.90;3.45;;;21.80;38.80;;;;;;5044610;28;20018;-80
2021/03/01 07:16:46;;;;;;;4.60;3.72;;;21.70;38.60;;;;;;5058171;28;20494;-80
2021/03/01 07:19:16;;;;;;;4.45;3.63;;;21.80;38.70;;;;;;5060095;28;20020;-80
2021/03/01 07:21:44;;;;;;;5.25;3.47;;;21.80;38.90;;;;;;5057022;28;20056;-80
2021/03/01 07:24:10;;;;;;;4.82;3.08;;;21.90;39.10;;;;;;5057946;28;20132;-79
2021/03/01 07:26:37;;;;;;;4.35;3.40;;;21.90;39.00;;;;;;5055540;28;20022;-79
2021/03/01 07:29:08;;;;;;;5.78;3.65;;;21.90;39.00;;;;;;5056867;28;20037;-80
2021/03/01 07:31:35;;;;;;;4.53;3.53;;;21.90;39.10;;;;;;5061501;28;20067;-81
2021/03/01 07:34:05;;;;;;;4.13;3.00;;;22.00;39.20;;;;;;5057590;28;20056;-78
2021/03/01 07:36:31;;;;;;;4.43;3.13;;;22.00;39.20;;;;;;5040493;28;20055;-78
2021/03/01 07:39:03;;;;;;;6.63;2.92;;;22.00;39.20;;;;;;5061487;28;20081;-79
2021/03/01 07:41:29;;;;;;;4.97;2.90;;;22.00;39.30;;;;;;5053997;28;20044;-80
2021/03/01 07:44:14;;;;;;;4.25;3.22;;;22.00;39.40;;;;;;5052242;28;20040;-81
2021/03/01 07:46:45;;;;;;;3.42;2.97;;;22.00;39.40;;;;;;5057490;28;20087;-79
2021/03/01 07:49:35;;;;;;;6.53;2.83;;;22.00;39.40;;;;;;5052216;28;20040;-80
2021/03/01 07:52:00;;;;;;;4.13;2.58;;;22.00;39.40;;;;;;5059453;28;20055;-81
2021/03/01 07:54:49;;;;;;;3.42;2.58;;;22.00;39.40;;;;;;5039591;28;20025;-83
2021/03/01 07:57:15;;;;;;;3.08;2.60;;;22.00;39.50;;;;;;5059727;28;20032;-81
2021/03/01 07:59:41;;;;;;;4.15;3.03;;;21.90;39.60;;;;;;5061093;28;20025;-81
2021/03/01 08:02:21;;;;;;;3.50;3.05;;;21.90;39.40;;;;;;5062629;28;20505;-81
2021/03/01 08:04:46;;;;;;;4.05;2.42;;;22.00;39.50;;;;;;5060509;28;20025;-81
2021/03/01 08:07:12;;;;;;;6.45;3.22;;;22.00;39.40;;;;;;5060848;28;20017;-79
2021/03/01 08:09:50;;;;;;;5.65;3.55;;;22.00;39.30;;;;;;5056041;28;20080;-80
2021/03/01 08:12:28;;;;;;;4.55;2.80;;;22.00;39.30;;;;;;5052295;28;20028;-79
2021/03/01 08:14:53;;;;;;;3.28;2.50;;;22.00;39.40;;;;;;5056238;28;20033;-80
2021/03/01 08:17:25;;;;;;;6.22;3.00;;;22.00;39.30;;;;;;5058744;28;20070;-82
2021/03/01 08:19:54;;;;;;;3.75;2.80;;;22.00;39.20;;;;;;5044400;28;20043;-83
2021/03/01 08:22:20;;;;;;;4.10;3.40;;;21.90;39.20;;;;;;5059108;28;20575;-80
2021/03/01 08:24:47;;;;;;;3.95;3.25;;;21.90;39.30;;;;;;5053805;28;20033;-80
2021/03/01 08:27:25;;;;;;;4.90;3.13;;;21.90;39.40;;;;;;5059383;28;20049;-80
2021/03/01 08:30:23;;;;;;;10.82;3.15;;;22.00;39.30;;;;;;5052448;28;20121;-81
2021/03/01 08:33:07;;;;;;;3.83;2.70;;;21.90;39.50;;;;;;5053938;28;20034;-79
2021/03/01 08:35:34;;;;;;;3.42;3.10;;;21.80;39.50;;;;;;5057019;28;20218;-79
2021/03/01 08:37:59;;;;;;;3.95;3.03;;;21.90;39.50;;;;;;5059584;28;20044;-77
2021/03/01 08:40:25;;;;;;;4.97;4.10;;;22.00;39.50;;;;;;5042464;28;20021;-78
2021/03/01 08:42:53;;;;;;;4.10;3.70;;;22.00;39.50;;;;;;5057067;28;20110;-78
2021/03/01 08:45:21;;;;;;;4.80;3.25;;;21.90;39.30;;;;;;5058325;28;20107;-78
2021/03/01 08:47:52;;;;;;;9.32;3.70;;;21.90;39.40;;;;;;5054509;28;20082;-78
2021/03/01 08:50:30;;;;;;;5.20;3.80;;;21.90;39.50;;;;;;5035722;28;20401;-79
2021/03/01 08:52:56;;;;;;;6.45;3.60;;;21.90;39.50;;;;;;5060256;28;20381;-80
2021/03/01 08:55:22;;;;;;;3.55;3.25;;;21.90;39.50;;;;;;5060822;28;20060;-78
2021/03/01 08:57:58;;;;;;;3.75;2.95;;;21.80;39.40;;;;;;5056754;28;20021;-80
2021/03/01 09:00:26;;;;;;;5.00;3.13;;;21.80;39.50;;;;;;5062200;28;20036;-80
2021/03/01 09:03:15;;;;;;;6.25;3.35;;;21.80;39.50;;;;;;5068942;28;20036;-79
2021/03/01 09:05:42;;;;;;;3.67;3.30;;;21.80;39.60;;;;;;5059655;28;20411;-81
2021/03/01 09:08:09;;;;;;;4.45;3.58;;;21.80;39.60;;;;;;5061220;28;20047;-79
2021/03/01 09:10:40;;;;;;;3.45;3.15;;;21.80;39.60;;;;;;5058954;28;20078;-79
2021/03/01 09:13:08;;;;;;;4.05;3.65;;;21.80;40.10;;;;;;5055464;28;20033;-80
2021/03/01 09:15:33;;;;;;;4.65;3.08;;;21.80;39.80;;;;;;5057260;28;20064;-79
2021/03/01 09:17:59;;;;;;;6.63;3.38;;;21.80;39.80;;;;;;5058179;28;20067;-81
2021/03/01 09:20:25;;;;;;;3.88;3.47;;;21.70;39.80;;;;;;5056186;28;20454;-77
2021/03/01 09:22:50;;;;;;;4.13;3.40;;;21.70;40.30;;;;;;5058937;28;20080;-80
2021/03/01 09:25:32;;;;;;;4.85;3.78;;;21.70;39.90;;;;;;5059055;28;20039;-81
2021/03/01 09:27:58;;;;;;;4.28;3.53;;;21.70;39.90;;;;;;5050866;28;20017;-78
2021/03/01 09:30:25;;;;;;;4.95;3.72;;;21.70;39.90;;;;;;5058035;28;20028;-77
2021/03/01 09:33:07;;;;;;;5.05;3.58;;;21.70;40.00;;;;;;5064552;28;20036;-77
2021/03/01 09:35:35;;;;;;;5.50;3.88;;;21.70;40.00;;;;;;5062151;28;20025;-79
2021/03/01 09:38:04;;;;;;;6.68;3.55;;;21.60;39.90;;;;;;5063309;28;20025;-77
2021/03/01 09:40:30;;;;;;;4.57;3.90;;;21.60;40.00;;;;;;5054363;28;20041;-77
2021/03/01 09:43:04;;;;;;;4.03;3.47;;;21.70;40.00;;;;;;5053684;28;20035;-81
2021/03/01 09:45:34;;;;;;;4.10;3.60;;;21.70;40.00;;;;;;5058196;28;20036;-82
2021/03/01 09:48:03;;;;;;;5.03;3.95;;;21.70;40.10;;;;;;5053166;28;20055;-80
2021/03/01 09:50:29;;;;;;;4.95;4.15;;;21.60;40.00;;;;;;5056212;28;20029;-86
2021/03/01 09:52:56;;;;;;;4.38;3.65;;;21.70;40.00;;;;;;5038731;28;20078;-82
2021/03/01 09:55:22;;;;;;;5.53;3.85;;;21.70;40.00;;;;;;5056251;28;20032;-82
2021/03/01 09:57:48;;;;;;;4.70;4.30;;;21.60;39.70;;;;;;5058906;28;20505;-82
2021/03/01 10:00:29;;;;;;;5.93;3.90;;;21.60;39.70;;;;;;5052922;28;20067;-82
2021/03/01 10:02:59;;;;;;;4.25;3.83;;;21.60;39.80;;;;;;5041221;28;20041;-82
2021/03/01 10:05:27;;;;;;;5.80;4.22;;;21.50;39.80;;;;;;5060720;28;20033;-81
2021/03/01 10:07:54;;;;;;;9.13;4.55;;;21.60;39.80;;;;;;5063531;28;20024;-80
2021/03/01 10:10:20;;;;;;;5.32;4.20;;;21.60;39.70;;;;;;5056724;28;20488;-79
2021/03/01 10:12:47;;;;;;;4.65;4.03;;;21.60;39.80;;;;;;5061374;28;20115;-79
2021/03/01 10:15:13;;;;;;;7.38;4.47;;;21.60;40.00;;;;;;5046330;28;20040;-80
2021/03/01 10:17:39;;;;;;;7.32;4.00;;;21.60;39.80;;;;;;5060033;28;20031;-79
2021/03/01 10:20:07;;;;;;;5.28;3.60;;;21.60;39.90;;;;;;5039749;28;20125;-79
2021/03/01 10:22:58;;;;;;;4.90;4.35;;;21.60;39.90;;;;;;5052809;28;20044;-80
2021/03/01 10:25:35;;;;;;;4.95;3.78;;;21.60;39.90;;;;;;5060340;28;20115;-79
2021/03/01 10:28:04;;;;;;;4.97;4.25;;;21.50;39.90;;;;;;5060483;28;20055;-79
2021/03/01 10:30:29;;;;;;;6.78;4.25;;;21.60;39.90;;;;;;5039848;28;20036;-79
2021/03/01 10:33:08;;;;;;;9.50;4.65;;;21.60;39.90;;;;;;5065167;28;20028;-79
2021/03/01 10:35:34;;;;;;;4.85;4.32;;;21.60;39.80;;;;;;5041142;28;20029;-79
2021/03/01 10:38:06;;;;;;;5.93;4.82;;;21.50;39.80;;;;;;5061743;28;20036;-80
2021/03/01 10:40:32;;;;;;;5.43;4.60;;;21.60;39.70;;;;;;5053979;28;20443;-79
2021/03/01 10:43:07;;;;;;;5.97;4.18;;;21.60;39.70;;;;;;5044837;28;20314;-79
2021/03/01 10:45:41;;;;;;;5.30;4.63;;;21.60;39.70;;;;;;5063093;28;20052;-79
2021/03/01 10:48:07;;;;;;;6.78;4.88;;;21.60;39.70;;;;;;5064646;28;20103;-80
2021/03/01 10:50:33;;;;;;;7.78;4.53;;;21.60;39.60;;;;;;5053339;28;20049;-81
2021/03/01 10:52:58;;;;;;;7.22;4.40;;;21.60;39.60;;;;;;5044221;28;20215;-80
2021/03/01 10:55:24;;;;;;;6.43;4.03;;;21.60;39.50;;;;;;5040380;28;20051;-81
2021/03/01 10:57:50;;;;;;;6.00;4.38;;;21.70;39.50;;;;;;5061139;28;20081;-80
2021/03/01 11:00:16;;;;;;;4.43;3.67;;;21.80;39.50;;;;;;5056818;28;20063;-77
2021/03/01 11:02:42;;;;;;;5.00;4.20;;;21.80;39.60;;;;;;5053257;28;20026;-80
2021/03/01 11:05:07;;;;;;;7.07;4.38;;;21.80;39.70;;;;;;5059527;28;20092;-80
2021/03/01 11:07:33;;;;;;;6.25;4.35;;;21.90;39.80;;;;;;5058027;28;20024;-80
2021/03/01 11:09:59;;;;;;;7.07;4.45;;;21.90;39.60;;;;;;5063502;28;20025;-81
2021/03/01 11:12:24;;;;;;;5.07;4.05;;;22.00;39.70;;;;;;5048453;28;20196;-80
2021/03/01 11:14:50;;;;;;;6.22;4.40;;;22.00;39.80;;;;;;5060279;28;20051;-80
2021/03/01 11:17:16;;;;;;;4.88;3.63;;;22.00;39.90;;;;;;5059367;28;20033;-79
2021/03/01 11:19:41;;;;;;;4.95;3.60;;;22.00;39.90;;;;;;5060507;28;20051;-81
2021/03/01 11:22:07;;;;;;;7.43;4.60;;;22.00;39.80;;;;;;5058537;28;20033;-81
2021/03/01 11:24:32;;;;;;;4.93;3.83;;;22.00;40.20;;;;;;5058957;28;20396;-81
2021/03/01 11:26:59;;;;;;;5.00;3.80;;;22.00;40.30;;;;;;5060037;28;20028;-80
2021/03/01 11:29:24;;;;;;;5.65;3.90;;;22.00;40.20;;;;;;5062685;28;20040;-82
2021/03/01 11:31:51;;;;;;;5.43;4.28;;;22.00;40.10;;;;;;5038208;28;20522;-80
2021/03/01 11:34:16;;;;;;;5.38;3.75;;;22.00;40.20;;;;;;5061684;28;20777;-82
2021/03/01 11:36:42;;;;;;;4.55;3.63;;;22.00;40.20;;;;;;5038550;28;20131;-81
2021/03/01 11:39:09;;;;;;;5.97;4.47;;;22.00;40.10;;;;;;5062802;28;20025;-79
2021/03/01 11:41:36;;;;;;;8.00;4.05;;;22.00;40.20;;;;;;5064464;28;20029;-77
2021/03/01 11:44:02;;;;;;;5.70;4.28;;;22.00;40.20;;;;;;5053881;28;20484;-79
2021/03/01 11:46:28;;;;;;;4.82;3.50;;;22.00;40.00;;;;;;5061768;28;20338;-80
2021/03/01 11:48:54;;;;;;;4.70;4.07;;;22.10;40.00;;;;;;5062707;28;20029;-83
2021/03/01 11:51:20;;;;;;;5.78;4.13;;;22.20;54.10;;;;;;5038770;28;20379;-81
2021/03/01 11:53:46;;;;;;;7.78;4.72;;;22.20;50.70;;;;;;5064799;28;20059;-82
2021/03/01 11:56:13;;;;;;;5.65;3.47;;;22.20;50.50;;;;;;5066932;28;20530;-79
2021/03/01 11:58:39;;;;;;;7.10;3.80;;;22.20;50.30;;;;;;5055268;28;20430;-78
2021/03/01 12:01:07;;;;;;;7.53;3.67;;;22.20;50.30;;;;;;5062267;28;20029;-80
2021/03/01 12:03:33;;;;;;;5.18;3.38;;;22.10;50.10;;;;;;5057442;28;20022;-82
2021/03/01 12:05:58;;;;;;;4.93;3.20;;;22.10;50.20;;;;;;5040595;28;20089;-80
2021/03/01 12:08:25;;;;;;;9.45;4.68;;;22.10;50.10;;;;;;5042636;28;20040;-81
2021/03/01 12:10:51;;;;;;;5.38;4.03;;;22.10;50.00;;;;;;5045012;28;20021;-80
2021/03/01 12:13:17;;;;;;;5.65;4.32;;;22.10;50.10;;;;;;5052336;28;21844;-80
2021/03/01 12:15:42;;;;;;;7.95;4.50;;;22.10;49.90;;;;;;5052794;28;20116;-80
2021/03/01 12:18:08;;;;;;;6.28;4.05;;;22.10;49.80;;;;;;5052438;28;20108;-80
2021/03/01 12:20:33;;;;;;;5.15;3.75;;;22.10;49.80;;;;;;5056620;28;20385;-79
2021/03/01 12:22:59;;;;;;;4.40;3.53;;;22.10;49.60;;;;;;5055660;28;20036;-82
2021/03/01 12:25:25;;;;;;;4.30;3.78;;;22.10;49.60;;;;;;5054994;28;20456;-79
2021/03/01 12:27:50;;;;;;;9.43;3.95;;;22.10;49.50;;;;;;5048891;28;20488;-79
2021/03/01 12:30:17;;;;;;;7.22;4.25;;;22.10;49.50;;;;;;5062382;28;20047;-78
2021/03/01 12:32:43;;;;;;;5.63;3.63;;;22.10;49.60;;;;;;5053756;28;20028;-81
2021/03/01 12:35:09;;;;;;;6.68;5.13;;;22.10;49.40;;;;;;5060236;28;20536;-80
2021/03/01 12:37:35;;;;;;;6.90;4.43;;;22.10;49.50;;;;;;5058594;28;20037;-79
2021/03/01 12:40:01;;;;;;;5.63;3.88;;;22.00;49.40;;;;;;5059196;28;20029;-78
2021/03/01 12:42:27;;;;;;;6.25;4.28;;;22.00;49.60;;;;;;5064895;28;20485;-78
2021/03/01 12:44:52;;;;;;;4.68;4.10;;;22.10;49.50;;;;;;5049804;28;20028;-80
2021/03/01 12:47:19;;;;;;;4.82;3.85;;;22.00;49.30;;;;;;5058311;28;20031;-79
2021/03/01 12:49:45;;;;;;;5.93;3.70;;;22.10;49.30;;;;;;5064194;28;20039;-83
2021/03/01 12:52:11;;;;;;;6.43;4.05;;;22.10;49.30;;;;;;5040772;28;20031;-81
2021/03/01 12:54:36;;;;;;;4.30;3.65;;;22.10;49.30;;;;;;5054512;28;20108;-82